Labelle, Idaho
Current Conditions -  °F | °C
As of 7:53 PM on Saturday 20 Dec 2014 (Local Time) from KRXE Reporting Station
Overcast Overcast  
Wind Chill: 28°   Ceiling: 1400
Heat Index: 36°   Visibility: 10mi
Dew Point: 33°   Wind: 13mph
Humidity: 89%   Direction: 200°SSW
Pressure: 29.94"   Gusts: NA
Location:  43.6749°N, 111.89°W
Report Text: KRXE 210253Z AUTO 20011KT 10SM OVC014 02/01 A2994 RMK AO2 SLP151 T00220006 58007
Loading
Personal Weather Stations






























Interactive Weather Map New forecast layout! Learn more

10-Day Weather Forecast

Advertisements
Track Severe Weather on mobile